aviador You're here:

KLUK Decoded Metar

CINCINNATI in OH, USA
Report Time2018-04-26 21:53:00
UTC Time2018-04-26 22:37:22
Flight Rules vfr VFR
WindCalm
Visibility9999 m
Phenomena:N/A
Clouds:N/A
Expected CloudBase > 6,800 ft AGL from Temp-Dew spread
CeilingNone
Temp19°C (ISA +5)
Dew Point02°C (32% RH)
AAT17.3°C
QNH1010 hPa
Density Alt1,296 ft
Elevation509 ft
Report Wrong Elevation
Raw Report
KLUK 262153Z 00000KT 10SM CLR 19/02 A2984 RMK AO2 SLP102
T01940017=

Extra information for KLUK:More info

Metar Taf Metar & Taf Last 4 Metars F.Rules Stats Wind Profile Meteogram Temp Stats Airport Information Weather charts Add Link Nearby VenuesMetar ALERT Operation Metar Decoded Social comments

AIRNAV info for KLUK